M/V Alton St. Amant — WDE7604 — position and weather

sailwx.info

Track history (hours):
 
Tides and Currents Weather Stations Pressure Air Temp Water Temp Dewpoint Dewpoint Depression Visibility Wind Speed Wind Dir Waves Ship Positions

M/V Alton St. Amant

Owner: The Barge Investment Group Five, L.L.C., Harahan, LA. More information available from US FCC via Universal Licensing System and Coast Guard Vessel Documentation Center.

Last reported at 2016-Dec-21 05:14 UTC. Time now 2017-Jan-22 05:56 UTC.
Position N 29°56' W 090°12'.
Warning: this ship's position is 32 days out of date.

Length 25 m; draft 2.7 m.

Type: Towing. MMSI: 367395270.

Date/timePositionNaut miles runAvg speedWind from/ knotsBaromVisibWave heightAir tempDewpointWater temp
2016-Dec-21 05:14N 29°56' W 090°12'91 2.4
2016-Dec-19 15:33N 29°51' W 091°57'57 4.7
2016-Dec-19 03:29N 29°56' W 093°02'3 3.8
2016-Dec-19 02:33N 29°56' W 093°06'4 3.7
2016-Dec-19 01:33N 29°57' W 093°10'4 4.0
2016-Dec-19 00:33N 29°60' W 093°13'3 3.2
2016-Dec-18 23:33N 30°02' W 093°16'3 3.3
2016-Dec-18 22:33N 30°05' W 093°18'1 0.8
2016-Dec-18 21:33N 30°06' W 093°18'0 0.0
2016-Dec-18 20:33N 30°06' W 093°18'1 0.5
2016-Dec-18 19:33N 30°06' W 093°19'3 3.2
2016-Dec-18 18:33N 30°04' W 093°21'0 0.1
2016-Dec-18 17:33N 30°04' W 093°21'1 0.7
2016-Dec-18 16:33N 30°04' W 093°22'3 2.9
2016-Dec-18 15:33N 30°04' W 093°25'3 2.7
2016-Dec-18 14:33N 30°04' W 093°28'4 3.9
2016-Dec-18 13:33N 30°04' W 093°33'5 4.6
2016-Dec-18 12:33N 30°04' W 093°38'  
Track history (hours):
 
Tides and Currents Weather Stations Pressure Air Temp Water Temp Dewpoint Dewpoint Depression Visibility Wind Speed Wind Dir Waves Ship Positions

M/V Alton St. Amant

Owner: The Barge Investment Group Five, L.L.C., Harahan, LA. More information available from US FCC via Universal Licensing System and Coast Guard Vessel Documentation Center.

Last reported at 2016-Dec-21 05:14 UTC. Time now 2017-Jan-22 05:56 UTC.
Position N 29°56' W 090°12'.
Warning: this ship's position is 32 days out of date.

Length 25 m; draft 2.7 m.

Type: Towing. MMSI: 367395270.

Date/timePositionNaut miles runAvg speedWind from/ knotsBaromVisibWave heightAir tempDewpointWater temp
2016-Dec-21 05:14N 29°56' W 090°12'91 2.4
2016-Dec-19 15:33N 29°51' W 091°57'57 4.7
2016-Dec-19 03:29N 29°56' W 093°02'3 3.8
2016-Dec-19 02:33N 29°56' W 093°06'4 3.7
2016-Dec-19 01:33N 29°57' W 093°10'4 4.0
2016-Dec-19 00:33N 29°60' W 093°13'3 3.2
2016-Dec-18 23:33N 30°02' W 093°16'3 3.3
2016-Dec-18 22:33N 30°05' W 093°18'1 0.8
2016-Dec-18 21:33N 30°06' W 093°18'0 0.0
2016-Dec-18 20:33N 30°06' W 093°18'1 0.5
2016-Dec-18 19:33N 30°06' W 093°19'3 3.2
2016-Dec-18 18:33N 30°04' W 093°21'0 0.1
2016-Dec-18 17:33N 30°04' W 093°21'1 0.7
2016-Dec-18 16:33N 30°04' W 093°22'3 2.9
2016-Dec-18 15:33N 30°04' W 093°25'3 2.7
2016-Dec-18 14:33N 30°04' W 093°28'4 3.9
2016-Dec-18 13:33N 30°04' W 093°33'5 4.6
2016-Dec-18 12:33N 30°04' W 093°38'  

Dump ship's entire track history